sensor_id;sensor_type;location;lat;lon;timestamp;temperature;humidity
23385;DHT22;11865;45.394;10.978;2023-07-16T00:01:09;27.10;93.40
23385;DHT22;11865;45.394;10.978;2023-07-16T00:03:36;27.10;93.40
23385;DHT22;11865;45.394;10.978;2023-07-16T00:06:04;27.10;93.30
23385;DHT22;11865;45.394;10.978;2023-07-16T00:08:31;27.00;93.40
23385;DHT22;11865;45.394;10.978;2023-07-16T00:10:59;27.00;93.50
23385;DHT22;11865;45.394;10.978;2023-07-16T00:13:27;26.90;93.70
23385;DHT22;11865;45.394;10.978;2023-07-16T00:15:54;26.90;93.60
23385;DHT22;11865;45.394;10.978;2023-07-16T00:18:22;26.90;93.80
23385;DHT22;11865;45.394;10.978;2023-07-16T00:20:49;26.90;93.70
23385;DHT22;11865;45.394;10.978;2023-07-16T00:23:17;26.90;93.80
23385;DHT22;11865;45.394;10.978;2023-07-16T00:25:44;26.90;93.70
23385;DHT22;11865;45.394;10.978;2023-07-16T00:28:12;26.90;93.80
23385;DHT22;11865;45.394;10.978;2023-07-16T00:30:40;26.90;93.70
23385;DHT22;11865;45.394;10.978;2023-07-16T00:33:07;26.90;93.70
23385;DHT22;11865;45.394;10.978;2023-07-16T00:35:35;26.90;93.70
23385;DHT22;11865;45.394;10.978;2023-07-16T00:38:02;26.80;93.70
23385;DHT22;11865;45.394;10.978;2023-07-16T00:40:30;26.80;94.30
23385;DHT22;11865;45.394;10.978;2023-07-16T00:42:57;26.70;94.10
23385;DHT22;11865;45.394;10.978;2023-07-16T00:45:25;26.80;93.90
23385;DHT22;11865;45.394;10.978;2023-07-16T00:47:52;26.80;93.90
23385;DHT22;11865;45.394;10.978;2023-07-16T00:50:20;26.80;93.80
23385;DHT22;11865;45.394;10.978;2023-07-16T00:52:48;26.80;93.90
23385;DHT22;11865;45.394;10.978;2023-07-16T00:55:16;26.80;94.00
23385;DHT22;11865;45.394;10.978;2023-07-16T00:57:45;26.80;94.10
23385;DHT22;11865;45.394;10.978;2023-07-16T01:00:12;26.70;94.20
23385;DHT22;11865;45.394;10.978;2023-07-16T01:02:40;26.70;94.30
23385;DHT22;11865;45.394;10.978;2023-07-16T01:05:08;26.70;94.50
23385;DHT22;11865;45.394;10.978;2023-07-16T01:07:37;26.70;94.50
23385;DHT22;11865;45.394;10.978;2023-07-16T01:10:07;26.70;94.50
23385;DHT22;11865;45.394;10.978;2023-07-16T01:12:36;26.60;94.60
23385;DHT22;11865;45.394;10.978;2023-07-16T01:15:04;26.60;94.80
23385;DHT22;11865;45.394;10.978;2023-07-16T01:17:31;26.60;94.90
23385;DHT22;11865;45.394;10.978;2023-07-16T01:19:59;26.50;95.10
23385;DHT22;11865;45.394;10.978;2023-07-16T01:30:41;26.40;95.40
23385;DHT22;11865;45.394;10.978;2023-07-16T01:33:13;26.30;95.70
23385;DHT22;11865;45.394;10.978;2023-07-16T01:35:42;26.30;95.70
23385;DHT22;11865;45.394;10.978;2023-07-16T01:38:11;26.30;95.70
23385;DHT22;11865;45.394;10.978;2023-07-16T01:40:41;26.30;95.80
23385;DHT22;11865;45.394;10.978;2023-07-16T01:43:09;26.30;95.90
23385;DHT22;11865;45.394;10.978;2023-07-16T01:45:36;26.30;96.00
23385;DHT22;11865;45.394;10.978;2023-07-16T01:50:59;26.00;97.00
23385;DHT22;11865;45.394;10.978;2023-07-16T01:53:27;25.70;97.90
23385;DHT22;11865;45.394;10.978;2023-07-16T01:55:55;25.40;98.50
23385;DHT22;11865;45.394;10.978;2023-07-16T01:58:23;25.20;98.70
23385;DHT22;11865;45.394;10.978;2023-07-16T02:00:50;25.00;99.30
23385;DHT22;11865;45.394;10.978;2023-07-16T02:03:18;24.80;99.70
23385;DHT22;11865;45.394;10.978;2023-07-16T02:05:46;24.70;99.90
23385;DHT22;11865;45.394;10.978;2023-07-16T02:08:13;24.60;99.90
23385;DHT22;11865;45.394;10.978;2023-07-16T02:10:41;24.40;99.90
23385;DHT22;11865;45.394;10.978;2023-07-16T02:13:11;24.40;99.90
23385;DHT22;11865;45.394;10.978;2023-07-16T02:15:38;24.20;99.90
23385;DHT22;11865;45.394;10.978;2023-07-16T02:18:06;24.20;99.90
23385;DHT22;11865;45.394;10.978;2023-07-16T02:20:35;24.20;99.90
23385;DHT22;11865;45.394;10.978;2023-07-16T02:23:02;24.20;99.90
23385;DHT22;11865;45.394;10.978;2023-07-16T02:25:31;24.10;99.90
23385;DHT22;11865;45.394;10.978;2023-07-16T02:27:59;24.00;99.90
23385;DHT22;11865;45.394;10.978;2023-07-16T02:30:27;24.00;99.90
23385;DHT22;11865;45.394;10.978;2023-07-16T02:32:54;24.00;99.90
23385;DHT22;11865;45.394;10.978;2023-07-16T02:35:22;24.00;99.90
23385;DHT22;11865;45.394;10.978;2023-07-16T02:37:49;23.90;99.90
23385;DHT22;11865;45.394;10.978;2023-07-16T02:40:18;23.90;99.90
23385;DHT22;11865;45.394;10.978;2023-07-16T02:42:46;23.90;99.90
23385;DHT22;11865;45.394;10.978;2023-07-16T02:45:13;23.90;99.90
23385;DHT22;11865;45.394;10.978;2023-07-16T02:47:41;23.90;99.90
23385;DHT22;11865;45.394;10.978;2023-07-16T02:50:09;24.30;99.90
23385;DHT22;11865;45.394;10.978;2023-07-16T02:52:37;24.30;99.90
23385;DHT22;11865;45.394;10.978;2023-07-16T02:55:05;24.40;99.90
23385;DHT22;11865;45.394;10.978;2023-07-16T02:57:33;24.40;99.90
23385;DHT22;11865;45.394;10.978;2023-07-16T03:00:00;24.20;99.90
23385;DHT22;11865;45.394;10.978;2023-07-16T03:02:28;24.00;99.90
23385;DHT22;11865;45.394;10.978;2023-07-16T03:04:55;24.00;99.90
23385;DHT22;11865;45.394;10.978;2023-07-16T03:07:23;24.00;99.90
23385;DHT22;11865;45.394;10.978;2023-07-16T03:09:50;24.00;99.90
23385;DHT22;11865;45.394;10.978;2023-07-16T03:12:18;23.90;99.90
23385;DHT22;11865;45.394;10.978;2023-07-16T03:14:47;23.80;99.90
23385;DHT22;11865;45.394;10.978;2023-07-16T03:17:15;23.80;99.90
23385;DHT22;11865;45.394;10.978;2023-07-16T03:19:42;23.80;99.90
23385;DHT22;11865;45.394;10.978;2023-07-16T03:22:10;24.00;99.90
23385;DHT22;11865;45.394;10.978;2023-07-16T03:24:38;23.90;99.90
23385;DHT22;11865;45.394;10.978;2023-07-16T03:27:06;23.80;99.90
23385;DHT22;11865;45.394;10.978;2023-07-16T03:29:45;23.70;99.90
23385;DHT22;11865;45.394;10.978;2023-07-16T03:32:15;23.60;99.90
23385;DHT22;11865;45.394;10.978;2023-07-16T03:34:42;23.60;99.90
23385;DHT22;11865;45.394;10.978;2023-07-16T03:37:10;23.60;99.90
23385;DHT22;11865;45.394;10.978;2023-07-16T03:39:37;23.60;99.90
23385;DHT22;11865;45.394;10.978;2023-07-16T03:42:05;23.50;99.90
23385;DHT22;11865;45.394;10.978;2023-07-16T03:44:33;23.60;99.90
23385;DHT22;11865;45.394;10.978;2023-07-16T03:47:02;23.50;99.90
23385;DHT22;11865;45.394;10.978;2023-07-16T03:49:30;23.50;99.90
23385;DHT22;11865;45.394;10.978;2023-07-16T03:51:57;23.50;99.90
23385;DHT22;11865;45.394;10.978;2023-07-16T03:54:25;23.30;99.90
23385;DHT22;11865;45.394;10.978;2023-07-16T03:56:53;23.30;99.90
23385;DHT22;11865;45.394;10.978;2023-07-16T03:59:21;23.40;99.90
23385;DHT22;11865;45.394;10.978;2023-07-16T04:01:50;23.40;99.90
23385;DHT22;11865;45.394;10.978;2023-07-16T04:04:17;23.50;99.90
23385;DHT22;11865;45.394;10.978;2023-07-16T04:06:45;23.60;99.90
23385;DHT22;11865;45.394;10.978;2023-07-16T04:09:12;23.60;99.90
23385;DHT22;11865;45.394;10.978;2023-07-16T04:11:40;23.70;99.90
23385;DHT22;11865;45.394;10.978;2023-07-16T04:14:07;23.70;99.90
23385;DHT22;11865;45.394;10.978;2023-07-16T04:16:35;23.80;99.90
23385;DHT22;11865;45.394;10.978;2023-07-16T04:19:02;23.70;99.90
23385;DHT22;11865;45.394;10.978;2023-07-16T04:21:30;23.80;99.90
23385;DHT22;11865;45.394;10.978;2023-07-16T04:23:57;23.80;99.90
23385;DHT22;11865;45.394;10.978;2023-07-16T04:26:25;23.90;99.90
23385;DHT22;11865;45.394;10.978;2023-07-16T04:28:52;24.00;99.90
23385;DHT22;11865;45.394;10.978;2023-07-16T04:31:20;24.20;99.90
23385;DHT22;11865;45.394;10.978;2023-07-16T04:33:47;24.40;99.90
23385;DHT22;11865;45.394;10.978;2023-07-16T04:36:16;24.60;99.90
23385;DHT22;11865;45.394;10.978;2023-07-16T04:38:44;24.80;99.90
23385;DHT22;11865;45.394;10.978;2023-07-16T04:41:11;24.80;99.90
23385;DHT22;11865;45.394;10.978;2023-07-16T04:43:40;24.90;99.90
23385;DHT22;11865;45.394;10.978;2023-07-16T04:46:07;24.90;99.90
23385;DHT22;11865;45.394;10.978;2023-07-16T04:48:35;25.00;99.90
23385;DHT22;11865;45.394;10.978;2023-07-16T04:51:02;25.10;99.90
23385;DHT22;11865;45.394;10.978;2023-07-16T04:53:30;25.20;99.90
23385;DHT22;11865;45.394;10.978;2023-07-16T04:55:57;25.20;99.90
23385;DHT22;11865;45.394;10.978;2023-07-16T04:58:25;25.40;99.90
23385;DHT22;11865;45.394;10.978;2023-07-16T05:00:52;25.90;99.90
23385;DHT22;11865;45.394;10.978;2023-07-16T05:03:20;26.50;99.90
23385;DHT22;11865;45.394;10.978;2023-07-16T05:05:47;27.30;99.50
23385;DHT22;11865;45.394;10.978;2023-07-16T05:08:15;28.30;97.70
23385;DHT22;11865;45.394;10.978;2023-07-16T05:10:43;28.90;96.40
23385;DHT22;11865;45.394;10.978;2023-07-16T05:13:10;29.70;95.20
23385;DHT22;11865;45.394;10.978;2023-07-16T05:15:38;30.20;93.50
23385;DHT22;11865;45.394;10.978;2023-07-16T05:18:05;30.70;92.30
23385;DHT22;11865;45.394;10.978;2023-07-16T05:20:33;30.30;91.20
23385;DHT22;11865;45.394;10.978;2023-07-16T05:23:01;30.80;90.60
23385;DHT22;11865;45.394;10.978;2023-07-16T05:25:29;30.90;90.30
23385;DHT22;11865;45.394;10.978;2023-07-16T05:27:58;31.10;89.00
23385;DHT22;11865;45.394;10.978;2023-07-16T05:30:26;31.40;91.00
23385;DHT22;11865;45.394;10.978;2023-07-16T05:32:54;30.90;90.10
23385;DHT22;11865;45.394;10.978;2023-07-16T05:35:21;30.80;90.00
23385;DHT22;11865;45.394;10.978;2023-07-16T05:37:49;32.10;88.80
23385;DHT22;11865;45.394;10.978;2023-07-16T05:40:16;33.00;86.50
23385;DHT22;11865;45.394;10.978;2023-07-16T05:42:44;33.10;84.50
23385;DHT22;11865;45.394;10.978;2023-07-16T05:45:11;33.90;85.40
23385;DHT22;11865;45.394;10.978;2023-07-16T05:47:39;34.10;85.00
23385;DHT22;11865;45.394;10.978;2023-07-16T05:50:07;34.10;81.80
23385;DHT22;11865;45.394;10.978;2023-07-16T05:52:35;34.40;81.00
23385;DHT22;11865;45.394;10.978;2023-07-16T05:55:02;34.80;79.70
23385;DHT22;11865;45.394;10.978;2023-07-16T05:57:30;33.90;79.70
23385;DHT22;11865;45.394;10.978;2023-07-16T05:59:58;35.20;80.30
23385;DHT22;11865;45.394;10.978;2023-07-16T06:02:25;34.90;80.20
23385;DHT22;11865;45.394;10.978;2023-07-16T06:04:53;33.90;79.30
23385;DHT22;11865;45.394;10.978;2023-07-16T06:07:20;34.80;79.60
23385;DHT22;11865;45.394;10.978;2023-07-16T06:09:48;34.60;78.70
23385;DHT22;11865;45.394;10.978;2023-07-16T06:12:15;34.40;78.10
23385;DHT22;11865;45.394;10.978;2023-07-16T06:14:43;34.90;79.20
23385;DHT22;11865;45.394;10.978;2023-07-16T06:17:10;34.70;77.50
23385;DHT22;11865;45.394;10.978;2023-07-16T06:19:38;35.00;78.40
23385;DHT22;11865;45.394;10.978;2023-07-16T06:22:05;35.60;75.90
23385;DHT22;11865;45.394;10.978;2023-07-16T06:24:34;36.30;75.30
23385;DHT22;11865;45.394;10.978;2023-07-16T06:27:02;35.10;74.80
23385;DHT22;11865;45.394;10.978;2023-07-16T06:29:30;35.60;75.60
23385;DHT22;11865;45.394;10.978;2023-07-16T06:31:58;35.00;74.40
23385;DHT22;11865;45.394;10.978;2023-07-16T06:34:26;35.50;75.50
23385;DHT22;11865;45.394;10.978;2023-07-16T06:36:54;35.40;75.50
23385;DHT22;11865;45.394;10.978;2023-07-16T06:39:21;35.80;73.90
23385;DHT22;11865;45.394;10.978;2023-07-16T06:41:49;35.90;75.20
23385;DHT22;11865;45.394;10.978;2023-07-16T06:44:16;35.20;77.30
23385;DHT22;11865;45.394;10.978;2023-07-16T06:46:44;35.50;76.80
23385;DHT22;11865;45.394;10.978;2023-07-16T06:49:11;35.80;76.90
23385;DHT22;11865;45.394;10.978;2023-07-16T06:51:39;35.70;75.20
23385;DHT22;11865;45.394;10.978;2023-07-16T06:54:07;34.70;75.50
23385;DHT22;11865;45.394;10.978;2023-07-16T06:56:35;34.80;74.40
23385;DHT22;11865;45.394;10.978;2023-07-16T06:59:02;36.20;75.50
23385;DHT22;11865;45.394;10.978;2023-07-16T07:01:30;35.90;75.30
23385;DHT22;11865;45.394;10.978;2023-07-16T07:03:57;35.50;74.50
23385;DHT22;11865;45.394;10.978;2023-07-16T07:06:25;36.90;73.70
23385;DHT22;11865;45.394;10.978;2023-07-16T07:08:53;35.70;72.00
23385;DHT22;11865;45.394;10.978;2023-07-16T07:11:20;35.50;72.80
23385;DHT22;11865;45.394;10.978;2023-07-16T07:13:48;35.10;73.70
23385;DHT22;11865;45.394;10.978;2023-07-16T07:16:18;35.60;75.60
23385;DHT22;11865;45.394;10.978;2023-07-16T07:18:46;36.20;72.10
23385;DHT22;11865;45.394;10.978;2023-07-16T07:21:13;36.30;71.90
23385;DHT22;11865;45.394;10.978;2023-07-16T07:23:41;36.40;74.40
23385;DHT22;11865;45.394;10.978;2023-07-16T07:26:08;36.40;72.30
23385;DHT22;11865;45.394;10.978;2023-07-16T07:28:36;36.40;72.80
23385;DHT22;11865;45.394;10.978;2023-07-16T07:31:03;35.80;74.00
23385;DHT22;11865;45.394;10.978;2023-07-16T07:33:31;34.30;74.40
23385;DHT22;11865;45.394;10.978;2023-07-16T07:35:59;34.30;75.50
23385;DHT22;11865;45.394;10.978;2023-07-16T07:38:27;35.20;76.40
23385;DHT22;11865;45.394;10.978;2023-07-16T07:40:55;34.20;76.60
23385;DHT22;11865;45.394;10.978;2023-07-16T07:43:23;34.50;76.40
23385;DHT22;11865;45.394;10.978;2023-07-16T07:45:50;35.00;77.20
23385;DHT22;11865;45.394;10.978;2023-07-16T07:48:18;35.30;78.00
23385;DHT22;11865;45.394;10.978;2023-07-16T07:50:46;34.40;77.10
23385;DHT22;11865;45.394;10.978;2023-07-16T07:53:17;34.70;76.60
23385;DHT22;11865;45.394;10.978;2023-07-16T07:55:47;35.30;78.00
23385;DHT22;11865;45.394;10.978;2023-07-16T07:58:15;34.90;80.20
23385;DHT22;11865;45.394;10.978;2023-07-16T08:00:42;35.00;78.20
23385;DHT22;11865;45.394;10.978;2023-07-16T08:03:10;35.80;76.90
23385;DHT22;11865;45.394;10.978;2023-07-16T08:05:38;35.90;78.30
23385;DHT22;11865;45.394;10.978;2023-07-16T08:08:05;35.50;76.30
23385;DHT22;11865;45.394;10.978;2023-07-16T08:10:33;35.70;76.10
23385;DHT22;11865;45.394;10.978;2023-07-16T08:13:01;35.60;76.90
23385;DHT22;11865;45.394;10.978;2023-07-16T08:15:28;36.50;74.70
23385;DHT22;11865;45.394;10.978;2023-07-16T08:17:56;37.00;74.70
23385;DHT22;11865;45.394;10.978;2023-07-16T08:20:27;36.90;74.00
23385;DHT22;11865;45.394;10.978;2023-07-16T08:22:54;36.20;75.10
23385;DHT22;11865;45.394;10.978;2023-07-16T08:25:22;35.30;74.60
23385;DHT22;11865;45.394;10.978;2023-07-16T08:27:49;35.30;75.80
23385;DHT22;11865;45.394;10.978;2023-07-16T08:30:17;35.00;78.50
23385;DHT22;11865;45.394;10.978;2023-07-16T08:32:44;34.00;80.20
23385;DHT22;11865;45.394;10.978;2023-07-16T08:35:12;33.50;81.40
23385;DHT22;11865;45.394;10.978;2023-07-16T08:37:43;33.90;80.60
23385;DHT22;11865;45.394;10.978;2023-07-16T08:40:14;33.50;81.10
23385;DHT22;11865;45.394;10.978;2023-07-16T08:42:45;33.70;82.30
23385;DHT22;11865;45.394;10.978;2023-07-16T08:45:14;33.60;82.70
23385;DHT22;11865;45.394;10.978;2023-07-16T08:47:43;33.40;85.50
23385;DHT22;11865;45.394;10.978;2023-07-16T08:50:11;33.30;89.10
23385;DHT22;11865;45.394;10.978;2023-07-16T08:52:40;33.20;84.80
23385;DHT22;11865;45.394;10.978;2023-07-16T08:55:07;33.10;85.40
23385;DHT22;11865;45.394;10.978;2023-07-16T08:57:36;33.10;83.90
23385;DHT22;11865;45.394;10.978;2023-07-16T09:00:05;32.80;83.80
23385;DHT22;11865;45.394;10.978;2023-07-16T09:02:33;32.40;83.30
23385;DHT22;11865;45.394;10.978;2023-07-16T09:05:01;32.60;83.80
23385;DHT22;11865;45.394;10.978;2023-07-16T09:07:29;32.90;87.30
23385;DHT22;11865;45.394;10.978;2023-07-16T09:09:58;33.00;87.20
23385;DHT22;11865;45.394;10.978;2023-07-16T09:12:26;32.40;85.00
23385;DHT22;11865;45.394;10.978;2023-07-16T09:14:53;32.70;86.70
23385;DHT22;11865;45.394;10.978;2023-07-16T09:17:25;33.00;85.00
23385;DHT22;11865;45.394;10.978;2023-07-16T09:19:53;33.00;84.60
23385;DHT22;11865;45.394;10.978;2023-07-16T09:22:20;33.10;83.90
23385;DHT22;11865;45.394;10.978;2023-07-16T09:24:49;32.90;84.10
23385;DHT22;11865;45.394;10.978;2023-07-16T09:27:17;32.80;85.00
23385;DHT22;11865;45.394;10.978;2023-07-16T09:29:44;32.90;87.50
23385;DHT22;11865;45.394;10.978;2023-07-16T09:32:12;33.00;85.80
23385;DHT22;11865;45.394;10.978;2023-07-16T09:34:40;32.60;84.70
23385;DHT22;11865;45.394;10.978;2023-07-16T09:37:07;33.00;85.60
23385;DHT22;11865;45.394;10.978;2023-07-16T09:39:37;33.00;85.20
23385;DHT22;11865;45.394;10.978;2023-07-16T09:42:05;32.60;83.30
23385;DHT22;11865;45.394;10.978;2023-07-16T09:44:33;32.90;83.60
23385;DHT22;11865;45.394;10.978;2023-07-16T09:47:02;32.30;83.90
23385;DHT22;11865;45.394;10.978;2023-07-16T09:49:29;32.70;83.50
23385;DHT22;11865;45.394;10.978;2023-07-16T09:52:01;32.90;81.80
23385;DHT22;11865;45.394;10.978;2023-07-16T09:54:32;32.90;82.70
23385;DHT22;11865;45.394;10.978;2023-07-16T09:57:02;32.70;82.60
23385;DHT22;11865;45.394;10.978;2023-07-16T09:59:32;32.40;84.50
23385;DHT22;11865;45.394;10.978;2023-07-16T10:02:01;32.70;86.00
23385;DHT22;11865;45.394;10.978;2023-07-16T10:04:38;32.90;87.00
23385;DHT22;11865;45.394;10.978;2023-07-16T10:07:21;33.00;84.40
23385;DHT22;11865;45.394;10.978;2023-07-16T10:09:57;33.10;83.10
23385;DHT22;11865;45.394;10.978;2023-07-16T10:12:25;33.20;84.20
23385;DHT22;11865;45.394;10.978;2023-07-16T10:14:55;33.40;84.20
23385;DHT22;11865;45.394;10.978;2023-07-16T10:17:27;33.40;84.50
23385;DHT22;11865;45.394;10.978;2023-07-16T10:22:46;33.20;82.40
23385;DHT22;11865;45.394;10.978;2023-07-16T10:27:46;33.20;86.70
23385;DHT22;11865;45.394;10.978;2023-07-16T10:30:14;33.20;82.50
23385;DHT22;11865;45.394;10.978;2023-07-16T10:32:43;33.30;84.00
23385;DHT22;11865;45.394;10.978;2023-07-16T10:35:11;33.40;81.40
23385;DHT22;11865;45.394;10.978;2023-07-16T10:37:39;33.10;80.30
23385;DHT22;11865;45.394;10.978;2023-07-16T10:40:11;33.30;80.10
23385;DHT22;11865;45.394;10.978;2023-07-16T10:42:43;33.00;82.20
23385;DHT22;11865;45.394;10.978;2023-07-16T10:45:12;33.10;82.70
23385;DHT22;11865;45.394;10.978;2023-07-16T10:47:55;33.30;84.00
23385;DHT22;11865;45.394;10.978;2023-07-16T10:50:23;33.40;80.60
23385;DHT22;11865;45.394;10.978;2023-07-16T10:52:52;33.30;78.70
23385;DHT22;11865;45.394;10.978;2023-07-16T10:55:20;33.60;78.40
23385;DHT22;11865;45.394;10.978;2023-07-16T10:57:48;33.50;77.60
23385;DHT22;11865;45.394;10.978;2023-07-16T11:00:17;33.50;79.10
23385;DHT22;11865;45.394;10.978;2023-07-16T11:02:45;33.60;78.10
23385;DHT22;11865;45.394;10.978;2023-07-16T11:05:14;33.80;76.70
23385;DHT22;11865;45.394;10.978;2023-07-16T11:07:46;33.70;74.30
23385;DHT22;11865;45.394;10.978;2023-07-16T11:10:19;33.80;74.50
23385;DHT22;11865;45.394;10.978;2023-07-16T11:12:51;33.80;77.30
23385;DHT22;11865;45.394;10.978;2023-07-16T11:15:35;33.80;76.20
23385;DHT22;11865;45.394;10.978;2023-07-16T11:18:03;33.90;72.60
23385;DHT22;11865;45.394;10.978;2023-07-16T11:20:31;33.90;73.30
23385;DHT22;11865;45.394;10.978;2023-07-16T11:22:59;34.10;74.00
23385;DHT22;11865;45.394;10.978;2023-07-16T11:25:28;34.30;73.00
23385;DHT22;11865;45.394;10.978;2023-07-16T11:27:56;34.20;70.40
23385;DHT22;11865;45.394;10.978;2023-07-16T11:30:24;34.20;68.10
23385;DHT22;11865;45.394;10.978;2023-07-16T11:32:53;34.10;66.40
23385;DHT22;11865;45.394;10.978;2023-07-16T11:35:21;34.30;67.80
23385;DHT22;11865;45.394;10.978;2023-07-16T11:37:49;34.10;68.70
23385;DHT22;11865;45.394;10.978;2023-07-16T11:40:18;34.00;71.70
23385;DHT22;11865;45.394;10.978;2023-07-16T11:42:46;34.10;71.70
23385;DHT22;11865;45.394;10.978;2023-07-16T11:45:25;34.00;73.70
23385;DHT22;11865;45.394;10.978;2023-07-16T11:47:55;33.60;74.20
23385;DHT22;11865;45.394;10.978;2023-07-16T11:50:23;33.30;76.50
23385;DHT22;11865;45.394;10.978;2023-07-16T11:52:54;33.10;76.50
23385;DHT22;11865;45.394;10.978;2023-07-16T11:55:23;33.40;74.00
23385;DHT22;11865;45.394;10.978;2023-07-16T11:57:51;33.60;73.40
23385;DHT22;11865;45.394;10.978;2023-07-16T12:00:19;33.60;72.70
23385;DHT22;11865;45.394;10.978;2023-07-16T12:02:46;34.00;74.60
23385;DHT22;11865;45.394;10.978;2023-07-16T12:05:20;34.10;74.00
23385;DHT22;11865;45.394;10.978;2023-07-16T12:07:57;34.20;76.20
23385;DHT22;11865;45.394;10.978;2023-07-16T12:10:24;34.10;72.10
23385;DHT22;11865;45.394;10.978;2023-07-16T12:12:52;34.20;74.60
23385;DHT22;11865;45.394;10.978;2023-07-16T12:15:19;34.20;73.80
23385;DHT22;11865;45.394;10.978;2023-07-16T12:17:47;34.50;74.40
23385;DHT22;11865;45.394;10.978;2023-07-16T12:20:14;34.60;74.60
23385;DHT22;11865;45.394;10.978;2023-07-16T12:22:42;35.00;73.50
23385;DHT22;11865;45.394;10.978;2023-07-16T12:25:09;34.40;71.80
23385;DHT22;11865;45.394;10.978;2023-07-16T12:27:37;34.30;70.10
23385;DHT22;11865;45.394;10.978;2023-07-16T12:30:05;34.30;70.90
23385;DHT22;11865;45.394;10.978;2023-07-16T12:32:35;34.70;73.90
23385;DHT22;11865;45.394;10.978;2023-07-16T12:35:02;35.00;75.10
23385;DHT22;11865;45.394;10.978;2023-07-16T12:37:31;35.00;73.80
23385;DHT22;11865;45.394;10.978;2023-07-16T12:40:02;34.80;71.40
23385;DHT22;11865;45.394;10.978;2023-07-16T12:42:30;34.90;72.80
23385;DHT22;11865;45.394;10.978;2023-07-16T12:44:58;35.10;71.70
23385;DHT22;11865;45.394;10.978;2023-07-16T12:47:26;35.00;72.40
23385;DHT22;11865;45.394;10.978;2023-07-16T12:49:54;35.10;70.40
23385;DHT22;11865;45.394;10.978;2023-07-16T12:52:22;35.10;70.40
23385;DHT22;11865;45.394;10.978;2023-07-16T12:54:50;35.00;69.90
23385;DHT22;11865;45.394;10.978;2023-07-16T12:57:17;34.90;70.00
23385;DHT22;11865;45.394;10.978;2023-07-16T12:59:45;34.70;65.40
23385;DHT22;11865;45.394;10.978;2023-07-16T13:02:12;34.90;68.90
23385;DHT22;11865;45.394;10.978;2023-07-16T13:04:40;35.10;70.30
23385;DHT22;11865;45.394;10.978;2023-07-16T13:07:07;35.30;69.00
23385;DHT22;11865;45.394;10.978;2023-07-16T13:09:35;35.30;68.30
23385;DHT22;11865;45.394;10.978;2023-07-16T13:12:03;35.20;69.30
23385;DHT22;11865;45.394;10.978;2023-07-16T13:14:31;35.10;67.90
23385;DHT22;11865;45.394;10.978;2023-07-16T13:16:58;35.00;70.40
23385;DHT22;11865;45.394;10.978;2023-07-16T13:19:28;34.90;69.50
23385;DHT22;11865;45.394;10.978;2023-07-16T13:21:56;35.00;68.60
23385;DHT22;11865;45.394;10.978;2023-07-16T13:24:23;35.00;71.80
23385;DHT22;11865;45.394;10.978;2023-07-16T13:26:53;34.80;71.30
23385;DHT22;11865;45.394;10.978;2023-07-16T13:29:20;34.50;71.20
23385;DHT22;11865;45.394;10.978;2023-07-16T13:31:48;34.30;72.60
23385;DHT22;11865;45.394;10.978;2023-07-16T13:34:16;34.30;70.40
23385;DHT22;11865;45.394;10.978;2023-07-16T13:36:43;34.30;68.90
23385;DHT22;11865;45.394;10.978;2023-07-16T13:39:11;34.40;68.30
23385;DHT22;11865;45.394;10.978;2023-07-16T13:41:40;34.20;68.80
23385;DHT22;11865;45.394;10.978;2023-07-16T13:44:08;34.30;70.70
23385;DHT22;11865;45.394;10.978;2023-07-16T13:46:35;34.10;70.20
23385;DHT22;11865;45.394;10.978;2023-07-16T13:49:05;34.30;71.20
23385;DHT22;11865;45.394;10.978;2023-07-16T13:51:32;34.10;71.90
23385;DHT22;11865;45.394;10.978;2023-07-16T13:54:00;34.30;74.10
23385;DHT22;11865;45.394;10.978;2023-07-16T13:56:27;34.40;72.70
23385;DHT22;11865;45.394;10.978;2023-07-16T13:58:55;34.60;70.90
23385;DHT22;11865;45.394;10.978;2023-07-16T14:01:24;34.50;68.50
23385;DHT22;11865;45.394;10.978;2023-07-16T14:03:52;34.70;68.00
23385;DHT22;11865;45.394;10.978;2023-07-16T14:06:20;34.60;67.20
23385;DHT22;11865;45.394;10.978;2023-07-16T14:08:48;34.70;71.40
23385;DHT22;11865;45.394;10.978;2023-07-16T14:11:15;34.70;67.20
23385;DHT22;11865;45.394;10.978;2023-07-16T14:13:46;34.70;69.40
23385;DHT22;11865;45.394;10.978;2023-07-16T14:16:18;34.40;69.00
23385;DHT22;11865;45.394;10.978;2023-07-16T14:18:52;34.50;69.10
23385;DHT22;11865;45.394;10.978;2023-07-16T14:21:20;34.50;68.60
23385;DHT22;11865;45.394;10.978;2023-07-16T14:23:47;34.50;67.10
23385;DHT22;11865;45.394;10.978;2023-07-16T14:26:15;34.80;69.30
23385;DHT22;11865;45.394;10.978;2023-07-16T14:28:43;35.10;66.00
23385;DHT22;11865;45.394;10.978;2023-07-16T14:31:10;35.40;65.20
23385;DHT22;11865;45.394;10.978;2023-07-16T14:33:38;35.20;65.60
23385;DHT22;11865;45.394;10.978;2023-07-16T14:36:06;35.40;66.60
23385;DHT22;11865;45.394;10.978;2023-07-16T14:38:33;35.50;65.30
23385;DHT22;11865;45.394;10.978;2023-07-16T14:41:01;35.40;65.10
23385;DHT22;11865;45.394;10.978;2023-07-16T14:43:28;34.80;65.50
23385;DHT22;11865;45.394;10.978;2023-07-16T14:45:56;34.90;67.20
23385;DHT22;11865;45.394;10.978;2023-07-16T14:48:23;35.10;65.00
23385;DHT22;11865;45.394;10.978;2023-07-16T14:50:51;35.30;64.40
23385;DHT22;11865;45.394;10.978;2023-07-16T14:53:19;35.50;62.60
23385;DHT22;11865;45.394;10.978;2023-07-16T14:55:50;35.50;62.90
23385;DHT22;11865;45.394;10.978;2023-07-16T14:58:20;35.60;62.40
23385;DHT22;11865;45.394;10.978;2023-07-16T15:00:49;35.60;61.50
23385;DHT22;11865;45.394;10.978;2023-07-16T15:03:17;35.60;61.10
23385;DHT22;11865;45.394;10.978;2023-07-16T15:05:45;35.50;62.20
23385;DHT22;11865;45.394;10.978;2023-07-16T15:08:12;35.10;63.00
23385;DHT22;11865;45.394;10.978;2023-07-16T15:10:40;35.30;64.40
23385;DHT22;11865;45.394;10.978;2023-07-16T15:13:08;35.30;62.00
23385;DHT22;11865;45.394;10.978;2023-07-16T15:15:35;35.30;65.00
23385;DHT22;11865;45.394;10.978;2023-07-16T15:18:03;35.30;68.20
23385;DHT22;11865;45.394;10.978;2023-07-16T15:20:30;35.20;68.20
23385;DHT22;11865;45.394;10.978;2023-07-16T15:22:58;35.30;62.80
23385;DHT22;11865;45.394;10.978;2023-07-16T15:25:25;35.20;64.30
23385;DHT22;11865;45.394;10.978;2023-07-16T15:27:53;35.10;66.50
23385;DHT22;11865;45.394;10.978;2023-07-16T15:30:21;35.00;64.50
23385;DHT22;11865;45.394;10.978;2023-07-16T15:32:48;35.00;68.30
23385;DHT22;11865;45.394;10.978;2023-07-16T15:35:16;35.20;66.70
23385;DHT22;11865;45.394;10.978;2023-07-16T15:37:43;35.00;66.50